createdAt,value
2019-02-19T00:01:31.346Z,66.51
2019-02-19T00:04:02.544Z,66.62
2019-02-19T00:06:34.159Z,67.17
2019-02-19T00:09:07.161Z,66.96
2019-02-19T00:11:38.504Z,67.10
2019-02-19T00:14:10.024Z,67.23
2019-02-19T00:16:41.464Z,67.23
2019-02-19T00:19:12.744Z,67.02
2019-02-19T00:21:44.579Z,67.01
2019-02-19T00:24:16.182Z,66.68
2019-02-19T00:26:47.847Z,66.67
2019-02-19T00:29:19.454Z,66.37
2019-02-19T00:31:51.814Z,66.20
2019-02-19T00:34:23.158Z,66.27
2019-02-19T00:36:54.445Z,67.17
2019-02-19T00:39:26.086Z,67.01
2019-02-19T00:41:57.732Z,67.09
2019-02-19T00:44:29.325Z,67.00
2019-02-19T00:47:01.014Z,67.00
2019-02-19T00:49:32.612Z,66.95
2019-02-19T00:52:04.147Z,66.88
2019-02-19T00:54:35.624Z,66.85
2019-02-19T00:57:07.259Z,66.89
2019-02-19T00:59:38.954Z,67.09
2019-02-19T01:02:10.300Z,67.30
2019-02-19T01:04:41.815Z,67.45
2019-02-19T01:07:13.494Z,67.63
2019-02-19T01:09:44.940Z,67.88
2019-02-19T01:12:16.189Z,68.44
2019-02-19T01:14:47.868Z,68.47
2019-02-19T01:17:19.316Z,68.86
2019-02-19T01:19:51.050Z,69.39
2019-02-19T01:22:22.462Z,69.25
2019-02-19T01:24:54.105Z,69.15
2019-02-19T01:27:25.848Z,69.09
2019-02-19T01:29:57.307Z,68.90
2019-02-19T01:32:28.998Z,69.15
2019-02-19T01:35:00.538Z,68.87
2019-02-19T01:37:32.018Z,68.78
2019-02-19T01:40:03.687Z,69.29
2019-02-19T01:42:36.240Z,69.36
2019-02-19T01:45:09.024Z,69.85
2019-02-19T01:47:40.583Z,69.89
2019-02-19T01:50:12.394Z,70.16
2019-02-19T01:52:43.898Z,70.36
2019-02-19T01:55:15.490Z,69.98
2019-02-19T01:57:47.067Z,70.42
2019-02-19T02:00:18.628Z,70.40
2019-02-19T02:02:50.212Z,69.91
2019-02-19T02:05:21.788Z,69.82
2019-02-19T02:07:53.281Z,69.76
2019-02-19T02:10:24.888Z,70.10
2019-02-19T02:12:56.426Z,69.76
2019-02-19T02:15:27.893Z,69.72
2019-02-19T02:17:59.356Z,69.46
2019-02-19T02:20:31.933Z,69.13
2019-02-19T02:23:03.571Z,68.91
2019-02-19T02:25:35.130Z,68.90
2019-02-19T02:28:07.069Z,68.82
2019-02-19T02:30:38.638Z,68.89
2019-02-19T02:33:10.225Z,68.91
2019-02-19T02:35:41.597Z,69.25
2019-02-19T02:38:12.902Z,69.09
2019-02-19T02:40:44.144Z,69.16
2019-02-19T02:43:15.557Z,68.99
2019-02-19T02:45:53.510Z,68.98
2019-02-19T02:48:20.582Z,69.04
2019-02-19T02:50:52.148Z,69.29
2019-02-19T02:53:23.738Z,69.14
2019-02-19T02:55:55.450Z,68.67
2019-02-19T02:58:27.078Z,68.68
2019-02-19T03:00:58.639Z,68.41
2019-02-19T03:03:30.045Z,68.52
2019-02-19T03:06:14.415Z,68.68
2019-02-19T03:08:45.847Z,69.01
2019-02-19T03:11:17.483Z,68.52
2019-02-19T03:13:49.054Z,68.41
2019-02-19T03:16:20.802Z,69.02
2019-02-19T03:18:52.224Z,69.11
2019-02-19T03:21:23.760Z,69.87
2019-02-19T03:23:55.365Z,69.59
2019-02-19T03:26:26.859Z,69.89
2019-02-19T03:28:58.349Z,70.18
2019-02-19T03:31:29.577Z,70.51
2019-02-19T03:34:00.801Z,70.92
2019-02-19T03:36:32.057Z,70.89
2019-02-19T03:39:04.670Z,71.13
2019-02-19T03:41:37.005Z,71.15
2019-02-19T03:44:08.523Z,71.35
2019-02-19T03:46:40.277Z,71.36
2019-02-19T03:49:11.814Z,71.41
2019-02-19T03:51:43.458Z,71.62
2019-02-19T03:54:14.900Z,71.50
2019-02-19T03:56:46.568Z,71.45
2019-02-19T03:59:18.137Z,71.14
2019-02-19T04:01:49.644Z,70.86
2019-02-19T04:04:21.018Z,70.57
2019-02-19T04:06:52.545Z,70.54
2019-02-19T04:09:23.868Z,70.39
2019-02-19T04:11:55.209Z,70.60
2019-02-19T04:14:26.412Z,70.68
2019-02-19T04:16:58.885Z,71.38
2019-02-19T04:19:30.488Z,71.71
2019-02-19T04:22:01.690Z,71.64
2019-02-19T04:24:33.357Z,71.71
2019-02-19T04:27:04.967Z,71.80
2019-02-19T04:29:36.354Z,71.55
2019-02-19T04:32:07.973Z,71.61
2019-02-19T04:34:39.591Z,71.59
2019-02-19T04:37:11.252Z,71.26
2019-02-19T04:39:42.783Z,70.88
2019-02-19T04:42:14.435Z,70.45
2019-02-19T04:44:45.932Z,70.37
2019-02-19T04:47:17.599Z,70.47
2019-02-19T04:49:49.251Z,70.27
2019-02-19T04:52:20.812Z,69.78
2019-02-19T04:54:52.410Z,69.93
2019-02-19T04:57:24.012Z,70.14
2019-02-19T04:59:55.375Z,70.23
2019-02-19T05:02:27.018Z,70.24
2019-02-19T05:04:58.522Z,70.57
2019-02-19T05:07:29.942Z,70.83
2019-02-19T05:10:01.357Z,71.07
2019-02-19T05:12:32.876Z,71.23
2019-02-19T05:15:04.644Z,71.29
2019-02-19T05:17:36.346Z,71.47
2019-02-19T05:20:08.352Z,71.77
2019-02-19T05:22:39.680Z,71.95
2019-02-19T05:25:11.498Z,72.14
2019-02-19T05:27:42.998Z,72.46
2019-02-19T05:30:14.814Z,73.00
2019-02-19T05:32:46.424Z,73.36
2019-02-19T05:35:18.028Z,73.24
2019-02-19T05:37:49.579Z,73.34
2019-02-19T05:40:21.373Z,73.22
2019-02-19T05:42:52.645Z,72.61
2019-02-19T05:45:24.051Z,72.91
2019-02-19T05:47:55.584Z,72.95
2019-02-19T05:50:27.082Z,72.80
2019-02-19T05:52:58.831Z,74.49
2019-02-19T05:55:30.574Z,75.48
2019-02-19T05:58:02.007Z,76.23
2019-02-19T06:00:33.660Z,76.22
2019-02-19T06:03:05.340Z,74.49
2019-02-19T06:05:37.139Z,74.33
2019-02-19T06:08:08.573Z,73.32
2019-02-19T06:10:40.183Z,71.38
2019-02-19T06:13:11.727Z,69.64
2019-02-19T06:15:42.939Z,68.53
2019-02-19T06:18:14.905Z,67.53
2019-02-19T06:20:47.482Z,66.21
2019-02-19T06:23:19.072Z,64.63
2019-02-19T06:25:50.634Z,63.79
2019-02-19T06:28:22.263Z,62.68
2019-02-19T06:30:53.634Z,61.84
2019-02-19T06:33:25.280Z,60.95
2019-02-19T06:35:56.689Z,60.13
2019-02-19T06:38:28.077Z,60.07
2019-02-19T06:40:59.511Z,60.31
2019-02-19T06:43:31.014Z,60.40
2019-02-19T06:46:02.706Z,59.39
2019-02-19T06:48:34.173Z,60.03
2019-02-19T06:51:05.879Z,59.09
2019-02-19T06:53:37.436Z,59.56
2019-02-19T06:56:09.367Z,59.96
2019-02-19T06:58:40.636Z,58.59
2019-02-19T07:01:12.270Z,59.28
2019-02-19T07:04:01.540Z,60.12
2019-02-19T07:06:32.883Z,60.22
2019-02-19T07:09:05.015Z,61.83
2019-02-19T07:11:36.651Z,61.22
2019-02-19T07:14:08.197Z,63.15
2019-02-19T07:16:39.403Z,64.46
2019-02-19T07:19:10.672Z,63.98
2019-02-19T07:21:42.131Z,65.84
2019-02-19T07:24:13.752Z,64.09
2019-02-19T07:26:45.534Z,64.24
2019-02-19T07:29:16.948Z,64.79
2019-02-19T07:31:48.343Z,64.86
2019-02-19T07:34:19.970Z,64.59
2019-02-19T07:36:51.504Z,65.32
2019-02-19T07:39:22.887Z,64.35
2019-02-19T07:41:54.097Z,64.34
2019-02-19T07:44:25.467Z,63.55
2019-02-19T07:46:56.718Z,63.40
2019-02-19T07:49:28.464Z,64.25
2019-02-19T07:52:00.054Z,63.98
2019-02-19T07:54:31.349Z,62.65
2019-02-19T07:57:02.569Z,62.29
2019-02-19T07:59:34.178Z,61.61
2019-02-19T08:02:05.580Z,61.21
2019-02-19T08:04:36.822Z,60.24
2019-02-19T08:07:08.207Z,58.90
2019-02-19T08:09:39.670Z,58.39
2019-02-19T08:12:11.042Z,58.71
2019-02-19T08:14:42.306Z,58.03
2019-02-19T08:17:14.184Z,56.94
2019-02-19T08:19:45.605Z,57.03
2019-02-19T08:22:17.587Z,56.04
2019-02-19T08:24:49.119Z,56.54
2019-02-19T08:27:20.525Z,54.91
2019-02-19T08:29:52.311Z,55.61
2019-02-19T08:32:23.835Z,54.91
2019-02-19T08:34:55.315Z,55.84
2019-02-19T08:37:26.558Z,54.52
2019-02-19T08:39:58.150Z,53.22
2019-02-19T08:42:29.640Z,51.96
2019-02-19T08:45:01.134Z,52.64
2019-02-19T08:47:32.563Z,51.86
2019-02-19T08:50:04.139Z,50.81
2019-02-19T08:52:35.820Z,50.79
2019-02-19T08:55:07.503Z,51.63
2019-02-19T08:57:39.174Z,51.67
2019-02-19T09:00:11.438Z,50.64
2019-02-19T09:02:42.849Z,50.02
2019-02-19T09:05:14.176Z,49.08
2019-02-19T09:07:45.590Z,50.02
2019-02-19T09:10:16.920Z,49.06
2019-02-19T09:12:48.187Z,50.31
2019-02-19T09:15:19.716Z,49.06
2019-02-19T09:17:52.189Z,48.55
2019-02-19T09:20:23.711Z,48.50
2019-02-19T09:22:54.918Z,48.61
2019-02-19T09:25:26.210Z,47.05
2019-02-19T09:27:57.447Z,45.96
2019-02-19T09:30:28.869Z,45.87
2019-02-19T09:33:00.238Z,45.36
2019-02-19T09:35:31.656Z,46.18
2019-02-19T09:38:02.903Z,44.18
2019-02-19T09:40:34.033Z,43.61
2019-02-19T09:43:05.513Z,43.18
2019-02-19T09:45:36.834Z,43.63
2019-02-19T09:48:08.102Z,42.37
2019-02-19T09:50:39.414Z,43.16
2019-02-19T09:53:10.781Z,44.19
2019-02-19T09:55:43.794Z,42.77
2019-02-19T09:58:15.304Z,42.66
2019-02-19T10:00:46.747Z,42.74
2019-02-19T10:03:18.042Z,41.00
2019-02-19T10:05:49.378Z,41.00
2019-02-19T10:08:20.535Z,40.79
2019-02-19T10:10:51.981Z,40.29
2019-02-19T10:13:25.128Z,41.26
2019-02-19T10:15:56.651Z,41.22
2019-02-19T10:18:27.761Z,40.97
2019-02-19T10:20:59.796Z,40.33
2019-02-19T10:23:31.201Z,40.60
2019-02-19T10:26:04.007Z,40.65
2019-02-19T10:28:35.213Z,39.92
2019-02-19T10:31:06.501Z,39.34
2019-02-19T10:33:37.612Z,39.34
2019-02-19T10:36:08.752Z,38.35
2019-02-19T10:38:39.739Z,38.83
2019-02-19T10:41:10.854Z,38.94
2019-02-19T10:43:41.974Z,38.68
2019-02-19T10:46:13.185Z,38.68
2019-02-19T10:48:44.351Z,38.66
2019-02-19T10:51:15.564Z,37.94
2019-02-19T10:53:46.719Z,37.94
2019-02-19T10:56:17.897Z,38.14
2019-02-19T10:58:49.062Z,37.58
2019-02-19T11:01:20.118Z,37.84
2019-02-19T11:03:52.294Z,36.94
2019-02-19T11:06:23.427Z,36.38
2019-02-19T11:08:54.555Z,35.78
2019-02-19T11:11:25.940Z,36.16
2019-02-19T11:13:57.358Z,34.89
2019-02-19T11:16:28.388Z,34.76
2019-02-19T11:18:59.476Z,35.20
2019-02-19T11:21:30.520Z,34.65
2019-02-19T11:24:01.821Z,33.42
2019-02-19T11:26:32.755Z,33.00
2019-02-19T11:29:03.789Z,33.34
2019-02-19T11:31:34.879Z,32.77
2019-02-19T11:34:06.047Z,33.09
2019-02-19T11:36:37.512Z,33.09
2019-02-19T11:39:10.015Z,31.70
2019-02-19T11:41:41.308Z,32.42
2019-02-19T11:44:12.503Z,31.75
2019-02-19T11:46:43.977Z,32.53
2019-02-19T11:49:15.031Z,33.63
2019-02-19T11:51:46.245Z,33.67
2019-02-19T11:54:17.393Z,32.57
2019-02-19T11:56:48.835Z,32.49
2019-02-19T11:59:20.257Z,32.56
2019-02-19T12:01:51.774Z,31.32
2019-02-19T12:04:23.047Z,31.79
2019-02-19T12:06:54.135Z,31.65
2019-02-19T12:09:25.221Z,31.53
2019-02-19T12:11:56.210Z,32.79
2019-02-19T12:14:27.246Z,32.42
2019-02-19T12:16:58.332Z,29.89
2019-02-19T12:19:29.692Z,30.10
2019-02-19T12:22:00.694Z,29.40
2019-02-19T12:24:31.715Z,29.79
2019-02-19T12:27:02.942Z,29.74
2019-02-19T12:29:34.265Z,29.23
2019-02-19T12:32:05.196Z,28.46
2019-02-19T12:34:36.565Z,28.41
2019-02-19T12:37:07.798Z,28.01
2019-02-19T12:39:39.073Z,29.22
2019-02-19T12:42:10.431Z,30.23
2019-02-19T12:44:41.723Z,31.00
2019-02-19T12:47:13.110Z,30.91
2019-02-19T12:49:44.424Z,31.04
2019-02-19T12:52:15.656Z,31.39
2019-02-19T12:54:46.947Z,31.39
2019-02-19T12:57:18.405Z,31.47
2019-02-19T12:59:56.383Z,30.89
2019-02-19T13:02:22.430Z,31.06
2019-02-19T13:04:53.680Z,31.14
2019-02-19T13:07:24.933Z,31.83
2019-02-19T13:09:56.254Z,32.89
2019-02-19T13:12:27.856Z,32.89
2019-02-19T13:14:58.868Z,33.22
2019-02-19T13:17:29.899Z,33.53
2019-02-19T13:20:00.850Z,33.57
2019-02-19T13:22:33.015Z,32.94
2019-02-19T13:25:04.237Z,32.94
2019-02-19T13:27:35.401Z,31.44
2019-02-19T13:30:08.054Z,31.44
2019-02-19T13:32:39.299Z,31.08
2019-02-19T13:35:11.143Z,31.08
2019-02-19T13:37:43.261Z,30.71
2019-02-19T13:40:14.798Z,30.71
2019-02-19T13:42:46.074Z,30.57
2019-02-19T13:45:17.569Z,30.89
2019-02-19T13:47:49.095Z,30.65
2019-02-19T13:50:21.012Z,30.77
2019-02-19T13:53:09.829Z,30.50
2019-02-19T13:55:44.045Z,31.42
2019-02-19T13:58:15.589Z,31.69
2019-02-19T14:00:47.600Z,31.51
2019-02-19T14:03:19.166Z,31.46
2019-02-19T14:05:50.310Z,31.17
2019-02-19T14:08:21.567Z,31.45
2019-02-19T14:10:52.900Z,31.53
2019-02-19T14:13:24.292Z,31.48
2019-02-19T14:16:15.353Z,31.39
2019-02-19T14:19:05.278Z,31.53
2019-02-19T14:21:56.621Z,31.53
2019-02-19T14:24:55.631Z,32.13
2019-02-19T14:27:44.482Z,31.95
2019-02-19T14:30:37.320Z,32.11
2019-02-19T14:33:48.842Z,32.11
2019-02-19T14:36:52.938Z,32.06
2019-02-19T14:39:48.960Z,31.88
2019-02-19T14:42:44.875Z,31.88
2019-02-19T14:45:30.878Z,31.43
2019-02-19T14:48:19.418Z,31.81
2019-02-19T14:51:15.955Z,31.57
2019-02-19T14:54:12.226Z,31.57
2019-02-19T14:57:08.114Z,31.70
2019-02-19T15:00:00.977Z,31.48
2019-02-19T15:03:00.165Z,31.56
2019-02-19T15:05:48.823Z,31.77
2019-02-19T15:08:42.082Z,31.93
2019-02-19T15:11:34.734Z,31.73
2019-02-19T15:14:27.897Z,32.22
2019-02-19T15:17:20.671Z,32.22
2019-02-19T15:20:19.448Z,32.29
2019-02-19T15:23:18.741Z,32.17
2019-02-19T15:26:13.019Z,32.45
2019-02-19T15:29:02.604Z,32.59
2019-02-19T15:31:45.573Z,32.88
2019-02-19T15:34:44.628Z,33.05
2019-02-19T15:37:33.277Z,33.07
2019-02-19T15:40:26.073Z,33.24
2019-02-19T15:43:25.438Z,33.36
2019-02-19T15:46:21.449Z,33.19
2019-02-19T15:49:14.516Z,33.17
2019-02-19T15:52:07.049Z,33.05
2019-02-19T15:54:47.808Z,33.07
2019-02-19T15:57:31.708Z,33.01
2019-02-19T16:00:20.545Z,33.02
2019-02-19T16:03:00.858Z,33.13
2019-02-19T16:05:51.151Z,33.33
2019-02-19T16:08:41.366Z,33.45
2019-02-19T16:11:34.520Z,33.68
2019-02-19T16:14:24.892Z,35.06
2019-02-19T16:17:08.366Z,35.89
2019-02-19T16:19:58.659Z,36.89
2019-02-19T16:22:51.659Z,36.87
2019-02-19T16:25:40.264Z,37.49
2019-02-19T16:28:45.293Z,37.81
2019-02-19T16:31:53.580Z,37.81
2019-02-19T16:34:47.479Z,37.99
2019-02-19T16:37:43.402Z,38.23
2019-02-19T16:40:21.022Z,38.60
2019-02-19T16:43:11.091Z,38.81
2019-02-19T16:45:59.824Z,38.85
2019-02-19T16:48:39.822Z,38.85
2019-02-19T16:51:21.191Z,38.90
2019-02-19T16:54:23.654Z,38.96
2019-02-19T16:57:07.299Z,39.59
2019-02-19T16:59:49.438Z,39.62
2019-02-19T17:02:30.238Z,39.72
2019-02-19T17:05:19.940Z,39.92
2019-02-19T17:07:57.920Z,40.21
2019-02-19T17:10:44.848Z,40.48
2019-02-19T17:13:37.809Z,40.65
2019-02-19T17:16:27.579Z,40.25
2019-02-19T17:19:20.794Z,40.39
2019-02-19T17:22:06.949Z,41.54
2019-02-19T17:25:02.765Z,41.47
2019-02-19T17:27:47.219Z,42.26
2019-02-19T17:30:37.330Z,41.83
2019-02-19T17:33:33.570Z,41.65
2019-02-19T17:36:22.758Z,42.13
2019-02-19T17:39:12.927Z,42.87
2019-02-19T17:41:49.481Z,42.83
2019-02-19T17:44:33.518Z,43.31
2019-02-19T17:47:26.672Z,43.91
2019-02-19T17:50:16.862Z,43.36
2019-02-19T17:53:05.541Z,44.62
2019-02-19T17:56:01.594Z,44.94
2019-02-19T17:58:47.003Z,45.54
2019-02-19T18:01:42.946Z,45.91
2019-02-19T18:04:21.923Z,46.44
2019-02-19T18:07:10.346Z,46.78
2019-02-19T18:10:10.678Z,47.32
2019-02-19T18:12:59.538Z,47.54
2019-02-19T18:16:01.887Z,47.56
2019-02-19T18:18:50.052Z,47.80
2019-02-19T18:21:21.340Z,47.84
2019-02-19T18:23:52.809Z,47.71
2019-02-19T18:26:24.039Z,48.07
2019-02-19T18:28:55.254Z,48.16
2019-02-19T18:31:26.246Z,48.42
2019-02-19T18:33:57.972Z,48.54
2019-02-19T18:36:29.588Z,48.75
2019-02-19T18:39:00.904Z,48.67
2019-02-19T18:41:33.949Z,48.77
2019-02-19T18:44:05.699Z,48.62
2019-02-19T18:46:37.301Z,48.91
2019-02-19T18:49:08.999Z,48.86
2019-02-19T18:51:40.250Z,49.16
2019-02-19T18:54:12.818Z,49.31
2019-02-19T18:56:44.512Z,49.56
2019-02-19T18:59:16.066Z,49.33
2019-02-19T19:01:47.532Z,49.39
2019-02-19T19:04:18.908Z,49.15
2019-02-19T19:06:50.351Z,49.18
2019-02-19T19:09:21.567Z,49.43
2019-02-19T19:11:53.190Z,49.74
2019-02-19T19:14:24.608Z,49.75
2019-02-19T19:16:55.966Z,50.00
2019-02-19T19:19:27.179Z,49.89
2019-02-19T19:21:58.539Z,49.99
2019-02-19T19:24:29.911Z,50.29
2019-02-19T19:27:01.208Z,50.46
2019-02-19T19:29:32.422Z,50.73
2019-02-19T19:32:03.783Z,50.85
2019-02-19T19:34:35.142Z,50.92
2019-02-19T19:37:06.803Z,51.32
2019-02-19T19:39:38.288Z,51.52
2019-02-19T19:42:09.724Z,51.86
2019-02-19T19:44:41.077Z,51.94
2019-02-19T19:47:12.433Z,51.70
2019-02-19T19:49:43.885Z,52.07
2019-02-19T19:52:15.292Z,52.22
2019-02-19T19:54:46.679Z,52.15
2019-02-19T19:57:18.211Z,52.37
2019-02-19T19:59:49.532Z,52.10
2019-02-19T20:02:20.809Z,52.30
2019-02-19T20:04:52.377Z,53.13
2019-02-19T20:07:23.871Z,52.90
2019-02-19T20:09:55.612Z,53.09
2019-02-19T20:12:27.304Z,52.84
2019-02-19T20:14:58.818Z,52.76
2019-02-19T20:17:30.421Z,53.24
2019-02-19T20:20:01.868Z,54.03
2019-02-19T20:22:34.228Z,53.71
2019-02-19T20:25:06.161Z,54.16
2019-02-19T20:27:37.918Z,53.91
2019-02-19T20:30:10.331Z,54.05
2019-02-19T20:32:42.513Z,54.03
2019-02-19T20:35:14.088Z,54.52
2019-02-19T20:37:53.653Z,54.82
2019-02-19T20:40:19.266Z,54.80
2019-02-19T20:42:50.840Z,54.89
2019-02-19T20:45:22.825Z,54.57
2019-02-19T20:47:54.306Z,54.71
2019-02-19T20:50:26.054Z,54.69
2019-02-19T20:52:57.693Z,54.37
2019-02-19T20:55:36.777Z,54.46
2019-02-19T20:58:03.939Z,55.61
2019-02-19T21:00:35.654Z,55.53
2019-02-19T21:03:07.869Z,56.17
2019-02-19T21:05:39.766Z,55.83
2019-02-19T21:08:11.418Z,55.63
2019-02-19T21:10:43.181Z,56.59
2019-02-19T21:13:14.723Z,57.28
2019-02-19T21:15:46.250Z,56.99
2019-02-19T21:18:18.084Z,56.89
2019-02-19T21:20:49.804Z,57.22
2019-02-19T21:23:21.816Z,57.29
2019-02-19T21:25:53.691Z,57.10
2019-02-19T21:28:25.671Z,57.37
2019-02-19T21:30:57.346Z,57.89
2019-02-19T21:33:28.996Z,57.79
2019-02-19T21:36:00.591Z,58.41
2019-02-19T21:38:32.230Z,58.20
2019-02-19T21:41:03.562Z,58.19
2019-02-19T21:43:35.299Z,58.26
2019-02-19T21:46:07.593Z,58.25
2019-02-19T21:48:39.540Z,58.31
2019-02-19T21:51:11.399Z,57.90
2019-02-19T21:53:43.131Z,57.82
2019-02-19T21:56:15.520Z,58.32
2019-02-19T21:58:47.221Z,59.36
2019-02-19T22:01:18.725Z,59.79
2019-02-19T22:03:50.025Z,59.93
2019-02-19T22:06:22.685Z,61.14
2019-02-19T22:08:54.352Z,60.99
2019-02-19T22:11:25.967Z,60.31
2019-02-19T22:13:57.560Z,60.34
2019-02-19T22:16:29.291Z,60.51
2019-02-19T22:19:01.130Z,60.12
2019-02-19T22:21:41.772Z,60.14
2019-02-19T22:24:13.337Z,59.64
2019-02-19T22:26:44.809Z,59.84
2019-02-19T22:29:16.539Z,60.91
2019-02-19T22:31:48.188Z,59.88
2019-02-19T22:34:19.858Z,59.98
2019-02-19T22:36:51.629Z,60.33
2019-02-19T22:39:23.288Z,60.14
2019-02-19T22:41:54.843Z,60.79
2019-02-19T22:44:26.417Z,60.33
2019-02-19T22:46:57.942Z,60.70
2019-02-19T22:49:29.257Z,59.96
2019-02-19T22:52:00.625Z,60.09
2019-02-19T22:54:42.958Z,60.53
2019-02-19T22:57:14.243Z,60.13
2019-02-19T22:59:45.919Z,60.20
2019-02-19T23:02:29.254Z,60.79
2019-02-19T23:05:01.000Z,61.45
2019-02-19T23:07:33.831Z,61.76
2019-02-19T23:10:06.626Z,61.94
2019-02-19T23:12:38.125Z,62.72
2019-02-19T23:15:09.754Z,63.38
2019-02-19T23:17:41.421Z,63.35
2019-02-19T23:20:13.116Z,63.42
2019-02-19T23:22:44.830Z,63.75
2019-02-19T23:25:16.464Z,64.03
2019-02-19T23:27:48.032Z,64.44
2019-02-19T23:30:19.780Z,64.86
2019-02-19T23:32:51.580Z,64.87
2019-02-19T23:35:32.488Z,64.53
2019-02-19T23:38:04.186Z,64.69
2019-02-19T23:40:36.271Z,64.72
2019-02-19T23:43:07.944Z,65.37
2019-02-19T23:45:39.526Z,64.81
2019-02-19T23:48:11.054Z,65.09
2019-02-19T23:50:42.665Z,64.94
2019-02-19T23:53:14.409Z,65.23
2019-02-19T23:55:46.052Z,65.72
2019-02-19T23:58:17.666Z,65.46
